createdAt,value
2019-06-26T00:00:17.007Z,9.90
2019-06-26T00:02:45.966Z,9.90
2019-06-26T00:05:14.742Z,9.80
2019-06-26T00:07:43.529Z,9.90
2019-06-26T00:10:12.765Z,9.80
2019-06-26T00:12:41.558Z,9.80
2019-06-26T00:15:10.375Z,9.70
2019-06-26T00:17:39.230Z,9.70
2019-06-26T00:20:08.351Z,9.70
2019-06-26T00:22:37.068Z,9.70
2019-06-26T00:25:09.948Z,9.70
2019-06-26T00:27:38.755Z,9.70
2019-06-26T00:30:08.796Z,9.70
2019-06-26T00:32:37.599Z,9.70
2019-06-26T00:35:06.957Z,9.80
2019-06-26T00:37:35.784Z,9.80
2019-06-26T00:40:06.805Z,9.80
2019-06-26T00:42:35.561Z,9.80
2019-06-26T00:45:06.297Z,9.90
2019-06-26T00:47:35.082Z,9.90
2019-06-26T00:50:05.404Z,9.90
2019-06-26T00:52:34.262Z,10.00
2019-06-26T00:55:03.064Z,9.90
2019-06-26T00:57:31.908Z,10.00
2019-06-26T01:00:02.395Z,10.10
2019-06-26T01:02:31.236Z,10.10
2019-06-26T01:05:02.519Z,10.00
2019-06-26T01:07:31.316Z,10.10
2019-06-26T01:10:00.098Z,10.10
2019-06-26T01:12:28.885Z,10.10
2019-06-26T01:14:57.685Z,10.20
2019-06-26T01:17:30.132Z,10.20
2019-06-26T01:19:58.974Z,10.10
2019-06-26T01:22:27.900Z,10.10
2019-06-26T01:24:56.850Z,10.00
2019-06-26T01:27:25.660Z,10.00
2019-06-26T01:29:56.080Z,10.10
2019-06-26T01:32:25.252Z,10.10
2019-06-26T01:34:54.054Z,10.00
2019-06-26T01:37:22.903Z,10.10
2019-06-26T01:39:51.638Z,10.10
2019-06-26T01:42:20.467Z,10.00
2019-06-26T01:44:49.558Z,10.00
2019-06-26T01:47:18.674Z,10.00
2019-06-26T01:49:47.484Z,10.00
2019-06-26T01:52:16.353Z,10.10
2019-06-26T01:54:45.153Z,10.10
2019-06-26T01:57:13.987Z,10.00
2019-06-26T01:59:43.127Z,10.00
2019-06-26T02:02:11.928Z,10.00
2019-06-26T02:04:41.305Z,10.00
2019-06-26T02:07:10.123Z,9.90
2019-06-26T02:09:38.919Z,9.90
2019-06-26T02:12:09.064Z,9.90
2019-06-26T02:14:37.878Z,9.80
2019-06-26T02:17:06.827Z,9.80
2019-06-26T02:19:35.863Z,9.70
2019-06-26T02:22:04.592Z,9.70
2019-06-26T02:24:33.403Z,9.70
2019-06-26T02:27:04.827Z,9.60
2019-06-26T02:29:33.678Z,9.60
2019-06-26T02:32:02.466Z,9.70
2019-06-26T02:34:31.260Z,9.70
2019-06-26T02:37:00.032Z,9.70
2019-06-26T02:39:28.765Z,9.70
2019-06-26T02:41:57.592Z,9.60
2019-06-26T02:44:26.408Z,9.60
2019-06-26T02:46:55.145Z,9.60
2019-06-26T02:49:23.899Z,9.60
2019-06-26T02:51:52.747Z,9.70
2019-06-26T02:54:21.479Z,9.80
2019-06-26T02:56:50.286Z,9.80
2019-06-26T02:59:19.107Z,9.80
2019-06-26T03:01:47.908Z,9.70
2019-06-26T03:04:16.766Z,9.80
2019-06-26T03:06:45.566Z,9.80
2019-06-26T03:09:14.367Z,9.80
2019-06-26T03:11:43.206Z,9.80
2019-06-26T03:14:12.012Z,9.80
2019-06-26T03:16:40.835Z,9.70
2019-06-26T03:19:09.639Z,9.70
2019-06-26T03:21:38.490Z,9.70
2019-06-26T03:24:07.279Z,9.70
2019-06-26T03:26:36.068Z,9.70
2019-06-26T03:29:04.992Z,9.60
2019-06-26T03:31:33.789Z,9.60
2019-06-26T03:34:02.642Z,9.70
2019-06-26T03:36:31.771Z,9.70
2019-06-26T03:39:00.568Z,9.70
2019-06-26T03:41:29.420Z,9.70
2019-06-26T03:43:58.223Z,9.70
2019-06-26T03:46:28.438Z,9.70
2019-06-26T03:48:57.222Z,9.80
2019-06-26T03:51:26.001Z,9.80
2019-06-26T03:53:54.847Z,9.80
2019-06-26T03:56:24.192Z,9.90
2019-06-26T03:58:53.030Z,9.90
2019-06-26T04:01:21.757Z,9.90
2019-06-26T04:03:50.631Z,10.00
2019-06-26T04:06:19.440Z,9.90
2019-06-26T04:08:48.236Z,10.00
2019-06-26T04:11:17.083Z,9.90
2019-06-26T04:13:46.219Z,10.00
2019-06-26T04:16:15.336Z,10.00
2019-06-26T04:18:44.174Z,10.10
2019-06-26T04:21:12.978Z,10.10
2019-06-26T04:23:41.785Z,10.10
2019-06-26T04:26:10.922Z,10.10
2019-06-26T04:28:39.976Z,10.20
2019-06-26T04:31:08.792Z,10.20
2019-06-26T04:33:37.664Z,10.10
2019-06-26T04:36:06.475Z,10.10
2019-06-26T04:38:35.270Z,10.10
2019-06-26T04:41:04.497Z,10.10
2019-06-26T04:43:33.239Z,10.00
2019-06-26T04:46:02.185Z,10.00
2019-06-26T04:48:31.011Z,10.00
2019-06-26T04:50:59.819Z,9.90
2019-06-26T04:53:30.516Z,9.90
2019-06-26T04:55:59.345Z,10.00
2019-06-26T04:58:28.499Z,9.90
2019-06-26T05:00:58.257Z,10.00
2019-06-26T05:03:27.089Z,9.90
2019-06-26T05:05:55.901Z,9.90
2019-06-26T05:08:24.746Z,9.90
2019-06-26T05:10:53.673Z,10.00
2019-06-26T05:13:22.692Z,10.00
2019-06-26T05:15:51.614Z,10.10
2019-06-26T05:18:20.440Z,10.10
2019-06-26T05:20:49.193Z,10.10
2019-06-26T05:23:18.028Z,10.10
2019-06-26T05:25:46.848Z,10.10
2019-06-26T05:28:15.665Z,10.10
2019-06-26T05:30:44.528Z,10.10
2019-06-26T05:33:13.331Z,10.10
2019-06-26T05:35:42.133Z,10.10
2019-06-26T05:38:10.963Z,10.10
2019-06-26T05:40:39.757Z,10.10
2019-06-26T05:43:08.923Z,10.10
2019-06-26T05:45:37.772Z,10.00
2019-06-26T05:48:07.981Z,10.10
2019-06-26T05:50:36.839Z,10.10
2019-06-26T05:53:05.652Z,10.10
2019-06-26T05:55:34.448Z,10.10
2019-06-26T05:58:03.289Z,10.10
2019-06-26T06:00:32.118Z,10.20
2019-06-26T06:03:01.266Z,10.20
2019-06-26T06:05:30.468Z,10.20
2019-06-26T06:07:59.265Z,10.30
2019-06-26T06:10:28.086Z,10.30
2019-06-26T06:12:56.919Z,10.40
2019-06-26T06:15:25.736Z,10.40
2019-06-26T06:17:54.580Z,10.40
2019-06-26T06:20:35.374Z,10.50
2019-06-26T06:23:06.186Z,10.50
2019-06-26T06:25:35.481Z,10.50
2019-06-26T06:28:04.427Z,10.50
2019-06-26T06:30:33.666Z,10.50
2019-06-26T06:33:02.623Z,10.50
2019-06-26T06:35:31.406Z,10.50
2019-06-26T06:38:00.262Z,10.50
2019-06-26T06:40:29.047Z,10.60
2019-06-26T06:43:02.094Z,10.70
2019-06-26T06:45:31.112Z,10.70
2019-06-26T06:48:01.647Z,10.80
2019-06-26T06:50:30.471Z,10.80
2019-06-26T06:52:59.207Z,10.70
2019-06-26T06:55:28.068Z,10.70
2019-06-26T06:57:56.907Z,10.70
2019-06-26T07:00:25.815Z,10.70
2019-06-26T07:02:56.682Z,10.70
2019-06-26T07:05:25.417Z,10.70
2019-06-26T07:07:54.590Z,10.70
2019-06-26T07:10:23.458Z,10.70
2019-06-26T07:12:55.442Z,10.60
2019-06-26T07:15:24.474Z,10.60
2019-06-26T07:17:54.114Z,10.50
2019-06-26T07:20:22.920Z,10.60
2019-06-26T07:22:51.802Z,10.70
2019-06-26T07:25:20.607Z,10.70
2019-06-26T07:27:49.417Z,10.70
2019-06-26T07:30:19.328Z,10.70
2019-06-26T07:32:48.498Z,10.70
2019-06-26T07:35:17.306Z,10.70
2019-06-26T07:37:46.124Z,10.70
2019-06-26T07:40:15.371Z,10.70
2019-06-26T07:42:44.472Z,10.80
2019-06-26T07:45:13.434Z,10.80
2019-06-26T07:47:44.057Z,10.70
2019-06-26T07:50:13.423Z,10.70
2019-06-26T07:52:42.405Z,10.70
2019-06-26T07:55:12.527Z,10.70
2019-06-26T07:57:41.483Z,10.80
2019-06-26T08:00:10.974Z,10.80
2019-06-26T08:02:39.816Z,10.90
2019-06-26T08:05:09.287Z,11.00
2019-06-26T08:07:38.180Z,11.10
2019-06-26T08:10:08.352Z,11.10
2019-06-26T08:12:37.168Z,11.20
2019-06-26T08:15:08.115Z,11.20
2019-06-26T08:17:38.468Z,11.20
2019-06-26T08:20:07.947Z,11.20
2019-06-26T08:22:36.798Z,11.20
2019-06-26T08:25:08.188Z,11.30
2019-06-26T08:27:37.246Z,11.20
2019-06-26T08:30:09.781Z,11.20
2019-06-26T08:32:38.964Z,11.20
2019-06-26T08:35:08.031Z,11.20
2019-06-26T08:37:36.798Z,11.20
2019-06-26T08:40:08.877Z,11.20
2019-06-26T08:42:37.662Z,11.20
2019-06-26T08:45:09.536Z,11.30
2019-06-26T08:47:38.406Z,11.40
2019-06-26T08:50:11.462Z,11.50
2019-06-26T08:52:40.330Z,11.40
2019-06-26T08:55:09.824Z,11.30
2019-06-26T08:57:38.702Z,11.40
2019-06-26T09:00:08.717Z,11.40
2019-06-26T09:02:37.907Z,11.40
2019-06-26T09:05:07.806Z,11.30
2019-06-26T09:07:36.671Z,11.30
2019-06-26T09:10:06.976Z,11.40
2019-06-26T09:12:35.734Z,11.50
2019-06-26T09:15:06.879Z,11.60
2019-06-26T09:17:36.221Z,11.60
2019-06-26T09:20:06.123Z,11.70
2019-06-26T09:22:35.364Z,11.70
2019-06-26T09:25:20.848Z,11.60
2019-06-26T09:27:36.785Z,11.70
2019-06-26T09:30:10.222Z,11.70
2019-06-26T09:32:39.324Z,11.80
2019-06-26T09:35:08.331Z,12.00
2019-06-26T09:37:37.123Z,12.00
2019-06-26T09:40:06.619Z,12.20
2019-06-26T09:42:35.482Z,12.20
2019-06-26T09:45:09.150Z,12.20
2019-06-26T09:47:38.004Z,12.20
2019-06-26T09:50:07.761Z,12.30
2019-06-26T09:52:36.598Z,12.40
2019-06-26T09:55:06.946Z,12.40
2019-06-26T09:57:36.691Z,12.50
2019-06-26T10:00:08.583Z,12.60
2019-06-26T10:02:37.492Z,12.70
2019-06-26T10:05:07.708Z,12.70
2019-06-26T10:07:36.563Z,12.80
2019-06-26T10:10:05.902Z,12.70
2019-06-26T10:12:34.680Z,12.90
2019-06-26T10:15:03.820Z,13.00
2019-06-26T10:17:32.593Z,13.10
2019-06-26T10:20:01.837Z,13.10
2019-06-26T10:22:30.647Z,13.20
2019-06-26T10:24:59.475Z,13.20
2019-06-26T10:27:28.522Z,13.30
2019-06-26T10:29:57.423Z,13.30
2019-06-26T10:32:26.218Z,13.40
2019-06-26T10:34:55.089Z,13.50
2019-06-26T10:37:23.895Z,13.50
2019-06-26T10:39:52.697Z,13.50
2019-06-26T10:42:21.611Z,13.50
2019-06-26T10:44:50.352Z,13.50
2019-06-26T10:47:19.149Z,13.70
2019-06-26T10:49:47.974Z,13.80
2019-06-26T10:52:16.813Z,13.90
2019-06-26T10:54:45.992Z,13.90
2019-06-26T10:57:15.188Z,14.00
2019-06-26T10:59:43.990Z,13.90
2019-06-26T11:02:16.730Z,14.00
2019-06-26T11:04:43.439Z,14.00
2019-06-26T11:07:12.302Z,14.10
2019-06-26T11:09:41.090Z,14.10
2019-06-26T11:12:09.883Z,14.30
2019-06-26T11:14:38.683Z,14.40
2019-06-26T11:17:09.086Z,14.50
2019-06-26T11:19:43.644Z,14.60
2019-06-26T11:22:08.293Z,14.60
2019-06-26T11:24:40.157Z,14.50
2019-06-26T11:27:09.070Z,14.60
2019-06-26T11:29:38.232Z,14.70
2019-06-26T11:32:09.452Z,14.60
2019-06-26T11:34:37.568Z,14.60
2019-06-26T11:37:06.392Z,14.60
2019-06-26T11:39:35.211Z,14.60
2019-06-26T11:42:04.141Z,14.60
2019-06-26T11:44:32.986Z,14.60
2019-06-26T11:47:01.792Z,14.60
2019-06-26T11:49:30.691Z,14.70
2019-06-26T11:51:59.506Z,14.80
2019-06-26T11:54:28.307Z,14.90
2019-06-26T11:56:57.133Z,15.00
2019-06-26T11:59:25.928Z,15.10
2019-06-26T12:01:54.737Z,15.10
2019-06-26T12:04:23.644Z,15.10
2019-06-26T12:06:54.464Z,15.10
2019-06-26T12:09:22.999Z,15.10
2019-06-26T12:11:51.873Z,14.90
2019-06-26T12:14:20.702Z,15.00
2019-06-26T12:16:49.496Z,14.90
2019-06-26T12:19:22.336Z,14.90
2019-06-26T12:21:48.787Z,15.00
2019-06-26T12:24:17.568Z,15.00
2019-06-26T12:26:46.787Z,15.00
2019-06-26T12:29:16.558Z,15.10
2019-06-26T12:31:45.307Z,15.20
2019-06-26T12:34:14.173Z,15.30
2019-06-26T12:36:42.974Z,15.50
2019-06-26T12:39:11.765Z,15.60
2019-06-26T12:41:40.619Z,15.50
2019-06-26T12:44:09.429Z,15.50
2019-06-26T12:46:39.814Z,15.60
2019-06-26T12:49:08.656Z,15.50
2019-06-26T12:51:37.528Z,15.60
2019-06-26T12:54:06.417Z,15.60
2019-06-26T12:56:37.954Z,15.70
2019-06-26T12:59:07.059Z,15.70
2019-06-26T13:01:36.151Z,15.70
2019-06-26T13:04:05.980Z,15.70
2019-06-26T13:06:34.751Z,15.70
2019-06-26T13:09:04.715Z,15.70
2019-06-26T13:11:33.500Z,15.80
2019-06-26T13:14:03.273Z,15.70
2019-06-26T13:16:32.341Z,15.80
2019-06-26T13:19:01.596Z,15.70
2019-06-26T13:21:30.402Z,15.60
2019-06-26T13:23:59.257Z,15.70
2019-06-26T13:26:28.122Z,15.70
2019-06-26T13:28:56.942Z,15.70
2019-06-26T13:31:25.688Z,16.00
2019-06-26T13:33:54.518Z,16.10
2019-06-26T13:36:23.353Z,16.10
2019-06-26T13:38:54.409Z,16.30
2019-06-26T13:41:23.153Z,16.30
2019-06-26T13:43:51.996Z,16.40
2019-06-26T13:46:21.193Z,16.40
2019-06-26T13:48:49.996Z,16.50
2019-06-26T13:51:21.486Z,16.70
2019-06-26T13:53:49.599Z,16.80
2019-06-26T13:56:18.713Z,16.80
2019-06-26T13:58:47.495Z,16.60
2019-06-26T14:01:16.355Z,16.70
2019-06-26T14:03:45.244Z,16.60
2019-06-26T14:06:14.040Z,16.80
2019-06-26T14:08:42.878Z,16.90
2019-06-26T14:11:11.699Z,17.00
2019-06-26T14:13:41.947Z,17.00
2019-06-26T14:16:10.910Z,16.90
2019-06-26T14:18:39.718Z,17.00
2019-06-26T14:21:21.540Z,16.80
2019-06-26T14:23:39.460Z,16.80
2019-06-26T14:26:08.251Z,16.90
2019-06-26T14:28:37.100Z,17.10
2019-06-26T14:31:05.905Z,17.30
2019-06-26T14:33:34.709Z,17.40
2019-06-26T14:36:03.579Z,17.40
2019-06-26T14:38:33.939Z,17.10
2019-06-26T14:41:03.177Z,17.20
2019-06-26T14:43:33.433Z,17.20
2019-06-26T14:46:02.322Z,17.30
2019-06-26T14:48:31.085Z,17.30
2019-06-26T14:51:02.548Z,17.40
2019-06-26T14:53:31.339Z,17.50
2019-06-26T14:56:02.732Z,17.30
2019-06-26T14:58:31.594Z,17.30
2019-06-26T15:01:00.450Z,17.40
2019-06-26T15:03:29.259Z,17.50
2019-06-26T15:06:12.262Z,17.80
2019-06-26T15:08:29.873Z,18.10
2019-06-26T15:10:58.610Z,18.20
2019-06-26T15:13:29.027Z,18.50
2019-06-26T15:15:59.520Z,18.40
2019-06-26T15:18:29.565Z,18.30
2019-06-26T15:20:58.431Z,18.20
2019-06-26T15:23:29.946Z,18.00
2019-06-26T15:25:58.797Z,17.90
2019-06-26T15:28:27.576Z,17.90
2019-06-26T15:30:56.355Z,17.90
2019-06-26T15:33:25.199Z,18.10
2019-06-26T15:35:54.153Z,18.10
2019-06-26T15:38:22.966Z,18.00
2019-06-26T15:40:51.766Z,18.20
2019-06-26T15:43:20.618Z,18.30
2019-06-26T15:45:49.429Z,18.40
2019-06-26T15:48:18.583Z,18.40
2019-06-26T15:50:47.430Z,18.40
2019-06-26T15:53:16.266Z,18.60
2019-06-26T15:55:46.083Z,18.20
2019-06-26T15:58:15.069Z,18.20
2019-06-26T16:00:44.374Z,18.20
2019-06-26T16:03:13.272Z,18.30
2019-06-26T16:05:44.660Z,18.50
2019-06-26T16:08:13.473Z,18.40
2019-06-26T16:10:42.716Z,18.50
2019-06-26T16:13:11.560Z,18.80
2019-06-26T16:15:40.396Z,18.70
2019-06-26T16:18:10.843Z,18.90
2019-06-26T16:20:39.700Z,19.00
2019-06-26T16:23:08.770Z,18.90
2019-06-26T16:25:37.568Z,19.00
2019-06-26T16:28:06.763Z,18.90
2019-06-26T16:30:35.507Z,18.80
2019-06-26T16:33:04.344Z,18.90
2019-06-26T16:35:33.162Z,18.80
2019-06-26T16:38:04.448Z,18.70
2019-06-26T16:40:33.568Z,18.90
2019-06-26T16:43:02.380Z,19.00
2019-06-26T16:45:31.251Z,19.10
2019-06-26T16:48:00.050Z,19.30
2019-06-26T16:50:28.861Z,19.30
2019-06-26T16:52:57.689Z,19.30
2019-06-26T16:55:26.510Z,19.20
2019-06-26T16:57:55.692Z,19.30
2019-06-26T17:00:24.547Z,19.10
2019-06-26T17:02:53.335Z,19.10
2019-06-26T17:05:24.156Z,19.20
2019-06-26T17:07:52.631Z,19.00
2019-06-26T17:10:22.145Z,18.90
2019-06-26T17:12:50.979Z,18.60
2019-06-26T17:15:19.914Z,18.60
2019-06-26T17:17:49.953Z,18.70
2019-06-26T17:20:18.915Z,18.90
2019-06-26T17:23:01.089Z,18.90
2019-06-26T17:25:18.282Z,19.00
2019-06-26T17:27:47.115Z,19.10
2019-06-26T17:30:16.479Z,19.00
2019-06-26T17:32:45.290Z,18.90
2019-06-26T17:35:14.349Z,19.00
2019-06-26T17:37:44.717Z,18.90
2019-06-26T17:40:13.974Z,18.60
2019-06-26T17:42:44.116Z,18.70
2019-06-26T17:45:13.757Z,18.70
2019-06-26T17:47:42.545Z,18.40
2019-06-26T17:50:11.889Z,18.20
2019-06-26T17:52:40.754Z,18.00
2019-06-26T17:55:11.112Z,17.90
2019-06-26T17:57:39.915Z,17.80
2019-06-26T18:00:12.317Z,17.90
2019-06-26T18:02:42.722Z,17.70
2019-06-26T18:05:12.779Z,17.70
2019-06-26T18:07:41.597Z,17.70
2019-06-26T18:10:10.391Z,17.80
2019-06-26T18:12:39.233Z,17.80
2019-06-26T18:15:08.286Z,17.80
2019-06-26T18:17:37.024Z,17.70
2019-06-26T18:20:07.833Z,17.70
2019-06-26T18:22:36.851Z,17.70
2019-06-26T18:25:07.082Z,17.90
2019-06-26T18:27:35.878Z,17.80
2019-06-26T18:30:06.963Z,17.60
2019-06-26T18:32:35.793Z,17.40
2019-06-26T18:35:06.594Z,17.20
2019-06-26T18:37:35.462Z,17.30
2019-06-26T18:40:05.759Z,17.50
2019-06-26T18:42:35.529Z,17.40
2019-06-26T18:45:05.775Z,17.50
2019-06-26T18:47:34.621Z,17.50
2019-06-26T18:50:05.029Z,17.40
2019-06-26T18:52:33.839Z,17.40
2019-06-26T18:55:02.674Z,17.60
2019-06-26T18:57:31.479Z,17.70
2019-06-26T19:00:00.328Z,17.80
2019-06-26T19:02:29.470Z,18.00
2019-06-26T19:04:58.301Z,18.30
2019-06-26T19:07:27.485Z,18.50
2019-06-26T19:09:56.850Z,18.50
2019-06-26T19:12:25.643Z,18.50
2019-06-26T19:14:54.497Z,18.80
2019-06-26T19:17:23.299Z,18.70
2019-06-26T19:19:52.156Z,18.60
2019-06-26T19:22:20.882Z,18.70
2019-06-26T19:24:49.693Z,18.90
2019-06-26T19:27:18.522Z,18.90
2019-06-26T19:29:47.372Z,19.10
2019-06-26T19:32:16.219Z,19.30
2019-06-26T19:34:45.030Z,19.40
2019-06-26T19:37:13.879Z,19.50
2019-06-26T19:39:42.686Z,19.40
2019-06-26T19:42:11.906Z,19.50
2019-06-26T19:44:41.003Z,19.60
2019-06-26T19:47:09.805Z,19.60
2019-06-26T19:49:38.575Z,19.50
2019-06-26T19:52:07.453Z,19.50
2019-06-26T19:54:36.304Z,19.70
2019-06-26T19:57:06.868Z,19.90
2019-06-26T19:59:35.976Z,19.90
2019-06-26T20:02:05.380Z,19.80
2019-06-26T20:04:34.223Z,19.70
2019-06-26T20:07:03.035Z,19.10
2019-06-26T20:09:31.864Z,18.60
2019-06-26T20:12:00.665Z,18.30
2019-06-26T20:14:29.477Z,17.90
2019-06-26T20:16:58.721Z,17.40
2019-06-26T20:19:27.656Z,17.00
2019-06-26T20:21:56.510Z,16.80
2019-06-26T20:24:25.322Z,16.50
2019-06-26T20:26:54.470Z,16.30
2019-06-26T20:29:23.574Z,16.20
2019-06-26T20:31:52.372Z,16.20
2019-06-26T20:34:21.576Z,16.10
2019-06-26T20:36:50.361Z,16.00
2019-06-26T20:39:19.212Z,15.90
2019-06-26T20:41:48.076Z,15.80
2019-06-26T20:44:16.878Z,15.60
2019-06-26T20:46:45.999Z,15.40
2019-06-26T20:49:15.089Z,15.30
2019-06-26T20:51:43.940Z,15.20
2019-06-26T20:54:12.681Z,15.10
2019-06-26T20:56:41.518Z,15.10
2019-06-26T20:59:10.428Z,15.00
2019-06-26T21:01:39.328Z,14.90
2019-06-26T21:04:08.165Z,14.80
2019-06-26T21:06:37.005Z,14.70
2019-06-26T21:09:06.325Z,14.60
2019-06-26T21:11:35.142Z,14.50
2019-06-26T21:14:03.986Z,14.30
2019-06-26T21:16:33.555Z,14.20
2019-06-26T21:19:02.393Z,14.10
2019-06-26T21:21:31.195Z,14.00
2019-06-26T21:24:00.361Z,13.90
2019-06-26T21:26:29.190Z,13.90
2019-06-26T21:29:00.778Z,13.80
2019-06-26T21:31:28.796Z,13.80
2019-06-26T21:33:57.540Z,13.80
2019-06-26T21:36:26.383Z,13.80
2019-06-26T21:38:55.195Z,13.80
2019-06-26T21:41:24.002Z,13.80
2019-06-26T21:43:52.849Z,13.80
2019-06-26T21:46:21.788Z,13.80
2019-06-26T21:48:50.997Z,13.70
2019-06-26T21:51:21.511Z,13.60
2019-06-26T21:53:51.640Z,13.50
2019-06-26T21:56:21.754Z,13.40
2019-06-26T21:58:50.955Z,13.30
2019-06-26T22:01:20.152Z,13.30
2019-06-26T22:03:49.046Z,13.20
2019-06-26T22:06:18.771Z,13.20
2019-06-26T22:08:49.151Z,13.10
2019-06-26T22:11:17.972Z,13.10
2019-06-26T22:13:47.179Z,13.20
2019-06-26T22:16:15.988Z,13.20
2019-06-26T22:18:45.159Z,13.30
2019-06-26T22:21:14.129Z,13.20
2019-06-26T22:23:45.532Z,13.10
2019-06-26T22:26:14.565Z,13.10
2019-06-26T22:28:43.608Z,13.00
2019-06-26T22:31:12.592Z,13.00
2019-06-26T22:33:41.348Z,12.90
2019-06-26T22:36:10.122Z,12.90
2019-06-26T22:38:38.930Z,12.80
2019-06-26T22:41:07.843Z,12.70
2019-06-26T22:43:36.600Z,12.60
2019-06-26T22:46:05.661Z,12.60
2019-06-26T22:48:34.510Z,12.60
2019-06-26T22:51:03.348Z,12.40
2019-06-26T22:53:32.184Z,12.40
2019-06-26T22:56:07.521Z,12.30
2019-06-26T22:58:31.600Z,12.30
2019-06-26T23:01:03.201Z,12.30
2019-06-26T23:03:32.437Z,12.30
2019-06-26T23:06:01.294Z,12.30
2019-06-26T23:08:30.189Z,12.30
2019-06-26T23:10:58.987Z,12.40
2019-06-26T23:13:27.825Z,12.30
2019-06-26T23:15:56.664Z,12.30
2019-06-26T23:18:25.472Z,12.30
2019-06-26T23:20:54.333Z,12.20
2019-06-26T23:23:23.139Z,12.20
2019-06-26T23:25:51.950Z,12.20
2019-06-26T23:28:20.801Z,12.10
2019-06-26T23:30:49.618Z,12.10
2019-06-26T23:33:18.429Z,12.00
2019-06-26T23:35:47.184Z,12.00
2019-06-26T23:38:16.003Z,12.00
2019-06-26T23:40:47.175Z,12.00
2019-06-26T23:43:18.017Z,12.00
2019-06-26T23:45:46.960Z,11.90
2019-06-26T23:48:18.515Z,11.90
2019-06-26T23:50:47.391Z,11.90
2019-06-26T23:53:16.248Z,11.90
2019-06-26T23:55:45.070Z,11.90
2019-06-26T23:58:13.827Z,11.90
